sensor_id;sensor_type;location;lat;lon;timestamp;pressure;altitude;pressure_sealevel;temperature;humidity
4981;BME280;2507;50.392;7.482;2023-11-19T00:01:31;100452.41;;;13.26;73.74
4981;BME280;2507;50.392;7.482;2023-11-19T00:03:57;100451.84;;;13.23;74.42
4981;BME280;2507;50.392;7.482;2023-11-19T00:06:23;100464.38;;;13.30;74.02
4981;BME280;2507;50.392;7.482;2023-11-19T00:08:48;100459.41;;;13.37;73.30
4981;BME280;2507;50.392;7.482;2023-11-19T00:11:13;100451.56;;;13.26;74.14
4981;BME280;2507;50.392;7.482;2023-11-19T00:13:40;100450.72;;;13.46;73.75
4981;BME280;2507;50.392;7.482;2023-11-19T00:16:06;100458.06;;;13.73;71.87
4981;BME280;2507;50.392;7.482;2023-11-19T00:18:32;100437.84;;;13.83;71.27
4981;BME280;2507;50.392;7.482;2023-11-19T00:20:58;100450.06;;;13.84;70.74
4981;BME280;2507;50.392;7.482;2023-11-19T00:23:23;100442.50;;;14.00;69.79
4981;BME280;2507;50.392;7.482;2023-11-19T00:25:48;100431.63;;;13.93;70.42
4981;BME280;2507;50.392;7.482;2023-11-19T00:28:14;100419.66;;;13.80;71.28
4981;BME280;2507;50.392;7.482;2023-11-19T00:30:39;100413.25;;;13.82;70.68
4981;BME280;2507;50.392;7.482;2023-11-19T00:33:06;100388.56;;;13.93;70.47
4981;BME280;2507;50.392;7.482;2023-11-19T00:35:31;100404.22;;;13.75;71.15
4981;BME280;2507;50.392;7.482;2023-11-19T00:37:57;100398.00;;;13.86;71.00
4981;BME280;2507;50.392;7.482;2023-11-19T00:40:22;100389.06;;;13.68;72.09
4981;BME280;2507;50.392;7.482;2023-11-19T00:42:48;100392.03;;;13.84;71.47
4981;BME280;2507;50.392;7.482;2023-11-19T00:45:13;100408.19;;;14.00;71.04
4981;BME280;2507;50.392;7.482;2023-11-19T00:47:39;100414.81;;;13.85;71.40
4981;BME280;2507;50.392;7.482;2023-11-19T00:50:05;100400.91;;;13.83;71.52
4981;BME280;2507;50.392;7.482;2023-11-19T00:52:31;100382.03;;;13.87;71.80
4981;BME280;2507;50.392;7.482;2023-11-19T00:54:56;100370.69;;;14.06;71.59
4981;BME280;2507;50.392;7.482;2023-11-19T00:57:22;100369.19;;;14.03;70.63
4981;BME280;2507;50.392;7.482;2023-11-19T00:59:47;100373.44;;;13.85;71.64
4981;BME280;2507;50.392;7.482;2023-11-19T01:02:12;100373.31;;;13.87;71.69
4981;BME280;2507;50.392;7.482;2023-11-19T01:04:39;100365.22;;;13.79;72.52
4981;BME280;2507;50.392;7.482;2023-11-19T01:07:05;100365.44;;;14.15;71.42
4981;BME280;2507;50.392;7.482;2023-11-19T01:09:34;100360.34;;;14.33;70.33
4981;BME280;2507;50.392;7.482;2023-11-19T01:12:01;100360.09;;;14.36;69.76
4981;BME280;2507;50.392;7.482;2023-11-19T01:14:27;100369.59;;;14.08;71.16
4981;BME280;2507;50.392;7.482;2023-11-19T01:16:52;100374.53;;;13.83;72.68
4981;BME280;2507;50.392;7.482;2023-11-19T01:19:19;100386.28;;;13.60;73.30
4981;BME280;2507;50.392;7.482;2023-11-19T01:21:44;100378.25;;;13.41;74.81
4981;BME280;2507;50.392;7.482;2023-11-19T01:24:10;100380.44;;;13.66;73.82
4981;BME280;2507;50.392;7.482;2023-11-19T01:26:38;100372.03;;;13.42;75.28
4981;BME280;2507;50.392;7.482;2023-11-19T01:29:03;100362.16;;;13.44;75.61
4981;BME280;2507;50.392;7.482;2023-11-19T01:31:30;100361.69;;;13.59;74.79
4981;BME280;2507;50.392;7.482;2023-11-19T01:33:55;100362.34;;;13.52;75.58
4981;BME280;2507;50.392;7.482;2023-11-19T01:36:20;100351.69;;;13.53;75.55
4981;BME280;2507;50.392;7.482;2023-11-19T01:38:46;100358.06;;;13.51;75.73
4981;BME280;2507;50.392;7.482;2023-11-19T01:41:11;100350.16;;;13.51;76.11
4981;BME280;2507;50.392;7.482;2023-11-19T01:43:38;100343.63;;;13.45;76.38
4981;BME280;2507;50.392;7.482;2023-11-19T01:46:05;100325.28;;;13.44;77.27
4981;BME280;2507;50.392;7.482;2023-11-19T01:48:34;100313.81;;;13.54;76.54
4981;BME280;2507;50.392;7.482;2023-11-19T01:51:05;100308.41;;;13.56;76.85
4981;BME280;2507;50.392;7.482;2023-11-19T01:53:30;100316.41;;;13.45;77.65
4981;BME280;2507;50.392;7.482;2023-11-19T01:55:57;100314.06;;;13.42;77.63
4981;BME280;2507;50.392;7.482;2023-11-19T01:58:23;100322.38;;;13.47;77.33
4981;BME280;2507;50.392;7.482;2023-11-19T02:00:48;100312.41;;;13.50;76.83
4981;BME280;2507;50.392;7.482;2023-11-19T02:03:14;100306.16;;;13.51;76.32
4981;BME280;2507;50.392;7.482;2023-11-19T02:05:39;100309.25;;;13.56;76.86
4981;BME280;2507;50.392;7.482;2023-11-19T02:08:05;100309.06;;;13.48;76.90
4981;BME280;2507;50.392;7.482;2023-11-19T02:10:30;100331.59;;;13.62;76.26
4981;BME280;2507;50.392;7.482;2023-11-19T02:12:57;100312.44;;;13.60;76.17
4981;BME280;2507;50.392;7.482;2023-11-19T02:15:23;100335.06;;;13.62;76.45
4981;BME280;2507;50.392;7.482;2023-11-19T02:17:50;100336.03;;;13.61;76.28
4981;BME280;2507;50.392;7.482;2023-11-19T02:20:15;100325.88;;;13.57;76.53
4981;BME280;2507;50.392;7.482;2023-11-19T02:22:41;100321.06;;;13.62;76.26
4981;BME280;2507;50.392;7.482;2023-11-19T02:25:20;100315.47;;;13.55;77.03
4981;BME280;2507;50.392;7.482;2023-11-19T02:27:55;100325.88;;;13.57;77.12
4981;BME280;2507;50.392;7.482;2023-11-19T02:30:21;100316.88;;;13.59;76.85
4981;BME280;2507;50.392;7.482;2023-11-19T02:32:51;100324.38;;;13.64;76.90
4981;BME280;2507;50.392;7.482;2023-11-19T02:35:16;100331.00;;;13.58;77.26
4981;BME280;2507;50.392;7.482;2023-11-19T02:37:42;100331.00;;;13.49;77.93
4981;BME280;2507;50.392;7.482;2023-11-19T02:40:07;100326.00;;;13.55;77.94
4981;BME280;2507;50.392;7.482;2023-11-19T02:42:34;100322.69;;;13.53;77.65
4981;BME280;2507;50.392;7.482;2023-11-19T02:44:59;100313.69;;;13.56;77.92
4981;BME280;2507;50.392;7.482;2023-11-19T02:47:24;100314.91;;;13.52;77.99
4981;BME280;2507;50.392;7.482;2023-11-19T02:49:50;100324.66;;;13.61;78.14
4981;BME280;2507;50.392;7.482;2023-11-19T02:52:15;100326.72;;;13.57;78.01
4981;BME280;2507;50.392;7.482;2023-11-19T02:54:42;100309.28;;;13.75;77.03
4981;BME280;2507;50.392;7.482;2023-11-19T02:57:07;100320.56;;;13.87;76.74
4981;BME280;2507;50.392;7.482;2023-11-19T02:59:38;100315.81;;;13.81;76.69
4981;BME280;2507;50.392;7.482;2023-11-19T03:02:05;100305.69;;;13.76;77.09
4981;BME280;2507;50.392;7.482;2023-11-19T03:04:32;100292.06;;;13.62;77.98
4981;BME280;2507;50.392;7.482;2023-11-19T03:06:58;100290.53;;;13.69;77.80
4981;BME280;2507;50.392;7.482;2023-11-19T03:09:23;100296.06;;;13.66;78.18
4981;BME280;2507;50.392;7.482;2023-11-19T03:11:50;100299.69;;;13.65;78.01
4981;BME280;2507;50.392;7.482;2023-11-19T03:14:15;100282.19;;;13.73;77.96
4981;BME280;2507;50.392;7.482;2023-11-19T03:16:40;100280.81;;;13.79;77.15
4981;BME280;2507;50.392;7.482;2023-11-19T03:19:05;100274.84;;;13.77;76.96
4981;BME280;2507;50.392;7.482;2023-11-19T03:21:31;100270.81;;;13.63;77.77
4981;BME280;2507;50.392;7.482;2023-11-19T03:23:57;100273.72;;;13.70;77.29
4981;BME280;2507;50.392;7.482;2023-11-19T03:26:25;100266.38;;;13.73;76.84
4981;BME280;2507;50.392;7.482;2023-11-19T03:28:50;100260.41;;;13.71;76.79
4981;BME280;2507;50.392;7.482;2023-11-19T03:31:15;100266.09;;;13.67;77.32
4981;BME280;2507;50.392;7.482;2023-11-19T03:33:41;100258.59;;;13.53;77.58
4981;BME280;2507;50.392;7.482;2023-11-19T03:36:06;100260.22;;;13.44;78.16
4981;BME280;2507;50.392;7.482;2023-11-19T03:38:32;100257.44;;;13.46;78.26
4981;BME280;2507;50.392;7.482;2023-11-19T03:40:57;100262.16;;;13.32;78.94
4981;BME280;2507;50.392;7.482;2023-11-19T03:43:24;100249.38;;;13.38;78.85
4981;BME280;2507;50.392;7.482;2023-11-19T03:45:49;100259.66;;;13.41;78.28
4981;BME280;2507;50.392;7.482;2023-11-19T03:48:15;100254.53;;;13.39;79.18
4981;BME280;2507;50.392;7.482;2023-11-19T03:50:44;100244.13;;;13.38;79.46
4981;BME280;2507;50.392;7.482;2023-11-19T03:53:09;100257.59;;;13.54;78.93
4981;BME280;2507;50.392;7.482;2023-11-19T03:55:34;100254.41;;;13.50;78.74
4981;BME280;2507;50.392;7.482;2023-11-19T03:58:00;100251.63;;;13.52;78.90
4981;BME280;2507;50.392;7.482;2023-11-19T04:00:25;100267.31;;;13.53;78.99
4981;BME280;2507;50.392;7.482;2023-11-19T04:02:50;100263.31;;;13.59;78.93
4981;BME280;2507;50.392;7.482;2023-11-19T04:05:15;100259.16;;;13.56;78.48
4981;BME280;2507;50.392;7.482;2023-11-19T04:07:41;100254.97;;;13.54;78.97
4981;BME280;2507;50.392;7.482;2023-11-19T04:10:06;100254.28;;;13.52;78.61
4981;BME280;2507;50.392;7.482;2023-11-19T04:12:32;100253.59;;;13.59;78.25
4981;BME280;2507;50.392;7.482;2023-11-19T04:14:57;100259.41;;;13.53;78.34
4981;BME280;2507;50.392;7.482;2023-11-19T04:17:22;100261.91;;;13.55;78.51
4981;BME280;2507;50.392;7.482;2023-11-19T04:19:48;100265.25;;;13.47;78.74
4981;BME280;2507;50.392;7.482;2023-11-19T04:22:13;100271.19;;;13.49;79.41
4981;BME280;2507;50.392;7.482;2023-11-19T04:24:39;100266.88;;;13.48;79.62
4981;BME280;2507;50.392;7.482;2023-11-19T04:27:05;100255.66;;;13.46;79.50
4981;BME280;2507;50.392;7.482;2023-11-19T04:29:31;100235.09;;;13.40;79.61
4981;BME280;2507;50.392;7.482;2023-11-19T04:31:57;100240.25;;;13.42;79.46
4981;BME280;2507;50.392;7.482;2023-11-19T04:34:22;100255.09;;;13.43;79.42
4981;BME280;2507;50.392;7.482;2023-11-19T04:36:47;100247.72;;;13.37;79.76
4981;BME280;2507;50.392;7.482;2023-11-19T04:39:12;100248.16;;;13.42;79.93
4981;BME280;2507;50.392;7.482;2023-11-19T04:41:49;100244.97;;;13.38;80.83
4981;BME280;2507;50.392;7.482;2023-11-19T04:44:15;100257.28;;;13.38;81.07
4981;BME280;2507;50.392;7.482;2023-11-19T04:46:41;100254.38;;;13.41;80.95
4981;BME280;2507;50.392;7.482;2023-11-19T04:49:09;100262.47;;;13.49;81.57
4981;BME280;2507;50.392;7.482;2023-11-19T04:51:45;100260.97;;;13.65;80.33
4981;BME280;2507;50.392;7.482;2023-11-19T04:54:13;100271.63;;;13.64;79.75
4981;BME280;2507;50.392;7.482;2023-11-19T04:56:39;100268.03;;;13.65;79.82
4981;BME280;2507;50.392;7.482;2023-11-19T04:59:05;100264.97;;;13.60;80.25
4981;BME280;2507;50.392;7.482;2023-11-19T05:01:32;100266.63;;;13.61;80.07
4981;BME280;2507;50.392;7.482;2023-11-19T05:03:57;100286.91;;;13.70;79.55
4981;BME280;2507;50.392;7.482;2023-11-19T05:06:27;100269.00;;;13.73;79.31
4981;BME280;2507;50.392;7.482;2023-11-19T05:08:53;100258.31;;;13.75;79.80
4981;BME280;2507;50.392;7.482;2023-11-19T05:11:19;100255.81;;;13.73;79.37
4981;BME280;2507;50.392;7.482;2023-11-19T05:13:45;100255.25;;;13.60;79.84
4981;BME280;2507;50.392;7.482;2023-11-19T05:16:10;100254.28;;;13.61;79.97
4981;BME280;2507;50.392;7.482;2023-11-19T05:18:35;100258.44;;;13.54;80.17
4981;BME280;2507;50.392;7.482;2023-11-19T05:21:00;100258.84;;;13.50;80.37
4981;BME280;2507;50.392;7.482;2023-11-19T05:23:26;100258.59;;;13.53;80.43
4981;BME280;2507;50.392;7.482;2023-11-19T05:25:51;100262.75;;;13.55;80.10
4981;BME280;2507;50.392;7.482;2023-11-19T05:28:16;100252.75;;;13.59;80.06
4981;BME280;2507;50.392;7.482;2023-11-19T05:30:42;100266.22;;;13.56;80.13
4981;BME280;2507;50.392;7.482;2023-11-19T05:33:07;100269.56;;;13.58;80.50
4981;BME280;2507;50.392;7.482;2023-11-19T05:35:34;100271.06;;;13.60;80.50
4981;BME280;2507;50.392;7.482;2023-11-19T05:37:59;100265.13;;;13.68;80.32
4981;BME280;2507;50.392;7.482;2023-11-19T05:40:24;100273.34;;;13.74;79.38
4981;BME280;2507;50.392;7.482;2023-11-19T05:42:50;100279.84;;;13.70;79.32
4981;BME280;2507;50.392;7.482;2023-11-19T05:45:15;100272.63;;;13.63;79.92
4981;BME280;2507;50.392;7.482;2023-11-19T05:47:41;100278.97;;;13.60;80.58
4981;BME280;2507;50.392;7.482;2023-11-19T05:50:06;100286.53;;;13.74;80.23
4981;BME280;2507;50.392;7.482;2023-11-19T05:52:32;100288.03;;;13.77;80.25
4981;BME280;2507;50.392;7.482;2023-11-19T05:55:01;100297.63;;;13.87;79.90
4981;BME280;2507;50.392;7.482;2023-11-19T05:57:34;100295.41;;;13.83;80.39
4981;BME280;2507;50.392;7.482;2023-11-19T05:59:59;100293.34;;;13.86;80.59
4981;BME280;2507;50.392;7.482;2023-11-19T06:02:25;100286.38;;;13.95;79.92
4981;BME280;2507;50.392;7.482;2023-11-19T06:04:52;100292.53;;;14.05;79.44
4981;BME280;2507;50.392;7.482;2023-11-19T06:07:18;100294.31;;;14.04;79.02
4981;BME280;2507;50.392;7.482;2023-11-19T06:09:43;100289.72;;;13.97;79.13
4981;BME280;2507;50.392;7.482;2023-11-19T06:12:08;100290.84;;;13.94;78.67
4981;BME280;2507;50.392;7.482;2023-11-19T06:14:34;100290.13;;;13.83;79.39
4981;BME280;2507;50.392;7.482;2023-11-19T06:16:59;100292.50;;;13.86;79.24
4981;BME280;2507;50.392;7.482;2023-11-19T06:19:24;100311.50;;;13.89;79.11
4981;BME280;2507;50.392;7.482;2023-11-19T06:21:50;100294.88;;;13.89;78.82
4981;BME280;2507;50.392;7.482;2023-11-19T06:24:15;100295.69;;;13.80;79.47
4981;BME280;2507;50.392;7.482;2023-11-19T06:26:41;100294.69;;;13.71;79.92
4981;BME280;2507;50.392;7.482;2023-11-19T06:29:06;100293.41;;;13.66;79.98
4981;BME280;2507;50.392;7.482;2023-11-19T06:31:31;100293.41;;;13.66;80.25
4981;BME280;2507;50.392;7.482;2023-11-19T06:33:57;100304.56;;;13.79;79.86
4981;BME280;2507;50.392;7.482;2023-11-19T06:36:22;100305.78;;;13.75;79.47
4981;BME280;2507;50.392;7.482;2023-11-19T06:38:47;100313.41;;;13.59;80.61
4981;BME280;2507;50.392;7.482;2023-11-19T06:41:13;100313.97;;;13.53;80.74
4981;BME280;2507;50.392;7.482;2023-11-19T06:43:38;100317.81;;;13.49;79.94
4981;BME280;2507;50.392;7.482;2023-11-19T06:46:04;100322.44;;;13.56;78.63
4981;BME280;2507;50.392;7.482;2023-11-19T06:48:32;100331.47;;;13.63;78.35
4981;BME280;2507;50.392;7.482;2023-11-19T06:50:57;100328.03;;;13.72;76.55
4981;BME280;2507;50.392;7.482;2023-11-19T06:53:22;100321.66;;;13.84;74.97
4981;BME280;2507;50.392;7.482;2023-11-19T06:55:47;100336.38;;;13.87;74.77
4981;BME280;2507;50.392;7.482;2023-11-19T06:58:13;100339.16;;;13.85;73.60
4981;BME280;2507;50.392;7.482;2023-11-19T07:00:38;100329.59;;;14.03;70.65
4981;BME280;2507;50.392;7.482;2023-11-19T07:03:03;100329.16;;;13.98;70.12
4981;BME280;2507;50.392;7.482;2023-11-19T07:05:29;100326.97;;;14.03;69.37
4981;BME280;2507;50.392;7.482;2023-11-19T07:07:55;100336.81;;;14.01;69.43
4981;BME280;2507;50.392;7.482;2023-11-19T07:10:20;100334.75;;;14.14;68.75
4981;BME280;2507;50.392;7.482;2023-11-19T07:12:46;100339.31;;;14.22;68.55
4981;BME280;2507;50.392;7.482;2023-11-19T07:15:12;100340.84;;;14.24;68.03
4981;BME280;2507;50.392;7.482;2023-11-19T07:17:38;100343.63;;;14.13;68.08
4981;BME280;2507;50.392;7.482;2023-11-19T07:20:05;100344.59;;;14.03;68.09
4981;BME280;2507;50.392;7.482;2023-11-19T07:22:31;100344.28;;;13.96;67.28
4981;BME280;2507;50.392;7.482;2023-11-19T07:24:56;100366.13;;;14.08;66.57
4981;BME280;2507;50.392;7.482;2023-11-19T07:27:21;100362.25;;;14.12;66.46
4981;BME280;2507;50.392;7.482;2023-11-19T07:29:47;100366.13;;;14.08;66.60
4981;BME280;2507;50.392;7.482;2023-11-19T07:32:13;100370.69;;;14.06;67.06
4981;BME280;2507;50.392;7.482;2023-11-19T07:34:38;100388.06;;;14.08;66.69
4981;BME280;2507;50.392;7.482;2023-11-19T07:37:04;100372.50;;;14.15;66.52
4981;BME280;2507;50.392;7.482;2023-11-19T07:39:30;100378.53;;;14.26;66.40
4981;BME280;2507;50.392;7.482;2023-11-19T07:41:55;100377.81;;;14.24;66.39
4981;BME280;2507;50.392;7.482;2023-11-19T07:44:20;100391.59;;;14.28;66.47
4981;BME280;2507;50.392;7.482;2023-11-19T07:46:47;100398.97;;;14.34;65.97
4981;BME280;2507;50.392;7.482;2023-11-19T07:49:13;100412.19;;;14.34;64.98
4981;BME280;2507;50.392;7.482;2023-11-19T07:51:38;100404.25;;;14.34;63.58
4981;BME280;2507;50.392;7.482;2023-11-19T07:54:04;100405.78;;;14.27;64.04
4981;BME280;2507;50.392;7.482;2023-11-19T07:56:29;100411.34;;;14.43;63.81
4981;BME280;2507;50.392;7.482;2023-11-19T07:58:54;100401.91;;;14.50;62.81
4981;BME280;2507;50.392;7.482;2023-11-19T08:01:20;100393.13;;;14.50;62.77
4981;BME280;2507;50.392;7.482;2023-11-19T08:03:45;100381.34;;;14.54;62.12
4981;BME280;2507;50.392;7.482;2023-11-19T08:06:10;100384.13;;;14.62;60.83
4981;BME280;2507;50.392;7.482;2023-11-19T08:08:36;100403.16;;;14.65;59.53
4981;BME280;2507;50.392;7.482;2023-11-19T08:11:03;100393.56;;;14.74;58.41
4981;BME280;2507;50.392;7.482;2023-11-19T08:13:30;100388.25;;;14.93;57.50
4981;BME280;2507;50.392;7.482;2023-11-19T08:15:56;100381.84;;;14.86;57.21
4981;BME280;2507;50.392;7.482;2023-11-19T08:18:23;100387.69;;;14.99;57.02
4981;BME280;2507;50.392;7.482;2023-11-19T08:20:48;100388.69;;;14.98;56.65
4981;BME280;2507;50.392;7.482;2023-11-19T08:23:17;100379.91;;;15.07;56.42
4981;BME280;2507;50.392;7.482;2023-11-19T08:25:43;100390.72;;;15.04;55.54
4981;BME280;2507;50.392;7.482;2023-11-19T08:28:09;100394.91;;;15.06;55.74
4981;BME280;2507;50.392;7.482;2023-11-19T08:30:34;100387.78;;;15.16;55.10
4981;BME280;2507;50.392;7.482;2023-11-19T08:33:00;100392.94;;;15.18;54.85
4981;BME280;2507;50.392;7.482;2023-11-19T08:35:28;100396.69;;;15.15;55.11
4981;BME280;2507;50.392;7.482;2023-11-19T08:37:53;100392.50;;;15.22;54.82
4981;BME280;2507;50.392;7.482;2023-11-19T08:40:19;100391.41;;;15.25;53.53
4981;BME280;2507;50.392;7.482;2023-11-19T08:42:45;100399.75;;;15.20;53.70
4981;BME280;2507;50.392;7.482;2023-11-19T08:45:11;100399.44;;;15.33;52.95
4981;BME280;2507;50.392;7.482;2023-11-19T08:47:37;100386.63;;;15.38;52.40
4981;BME280;2507;50.392;7.482;2023-11-19T08:50:02;100401.34;;;15.50;52.11
4981;BME280;2507;50.392;7.482;2023-11-19T08:52:29;100406.19;;;15.55;51.57
4981;BME280;2507;50.392;7.482;2023-11-19T08:54:54;100436.44;;;15.52;52.05
4981;BME280;2507;50.392;7.482;2023-11-19T08:57:20;100398.97;;;15.57;52.04
4981;BME280;2507;50.392;7.482;2023-11-19T08:59:45;100406.09;;;15.83;52.08
4981;BME280;2507;50.392;7.482;2023-11-19T09:02:11;100411.78;;;15.88;52.11
4981;BME280;2507;50.392;7.482;2023-11-19T09:04:36;100392.47;;;16.05;50.90
4981;BME280;2507;50.392;7.482;2023-11-19T09:07:02;100399.56;;;16.05;51.63
4981;BME280;2507;50.392;7.482;2023-11-19T09:09:28;100416.41;;;16.04;51.45
4981;BME280;2507;50.392;7.482;2023-11-19T09:11:54;100410.16;;;16.05;51.33
4981;BME280;2507;50.392;7.482;2023-11-19T09:14:19;100411.19;;;15.94;51.97
4981;BME280;2507;50.392;7.482;2023-11-19T09:16:49;100408.28;;;15.88;52.09
4981;BME280;2507;50.392;7.482;2023-11-19T09:19:14;100412.84;;;15.95;51.90
4981;BME280;2507;50.392;7.482;2023-11-19T09:21:39;100429.47;;;16.15;52.36
4981;BME280;2507;50.392;7.482;2023-11-19T09:24:05;100419.25;;;16.20;51.86
4981;BME280;2507;50.392;7.482;2023-11-19T09:26:30;100419.72;;;16.15;52.27
4981;BME280;2507;50.392;7.482;2023-11-19T09:28:56;100430.00;;;16.18;52.66
4981;BME280;2507;50.392;7.482;2023-11-19T09:31:21;100425.97;;;16.42;52.18
4981;BME280;2507;50.392;7.482;2023-11-19T09:33:46;100438.78;;;16.64;51.17
4981;BME280;2507;50.392;7.482;2023-11-19T09:36:12;100445.16;;;16.88;51.27
4981;BME280;2507;50.392;7.482;2023-11-19T09:38:39;100446.28;;;17.03;50.78
4981;BME280;2507;50.392;7.482;2023-11-19T09:41:05;100450.25;;;17.07;49.68
4981;BME280;2507;50.392;7.482;2023-11-19T09:43:33;100450.94;;;17.09;50.11
4981;BME280;2507;50.392;7.482;2023-11-19T09:46:04;100457.00;;;17.02;50.57
4981;BME280;2507;50.392;7.482;2023-11-19T09:48:32;100444.22;;;16.97;49.83
4981;BME280;2507;50.392;7.482;2023-11-19T09:50:58;100442.66;;;16.87;50.27
4981;BME280;2507;50.392;7.482;2023-11-19T09:53:24;100437.72;;;16.92;50.74
4981;BME280;2507;50.392;7.482;2023-11-19T09:55:50;100442.50;;;16.88;50.45
4981;BME280;2507;50.392;7.482;2023-11-19T09:58:16;100439.81;;;17.06;50.44
4981;BME280;2507;50.392;7.482;2023-11-19T10:00:41;100434.97;;;17.01;49.97
4981;BME280;2507;50.392;7.482;2023-11-19T10:03:09;100440.22;;;16.93;49.25
4981;BME280;2507;50.392;7.482;2023-11-19T10:05:36;100430.28;;;16.95;49.40
4981;BME280;2507;50.392;7.482;2023-11-19T10:08:03;100431.41;;;17.10;50.01
4981;BME280;2507;50.392;7.482;2023-11-19T10:10:28;100425.09;;;17.11;50.20
4981;BME280;2507;50.392;7.482;2023-11-19T10:12:54;100418.06;;;17.02;48.60
4981;BME280;2507;50.392;7.482;2023-11-19T10:15:21;100418.59;;;17.06;49.80
4981;BME280;2507;50.392;7.482;2023-11-19T10:17:51;100413.78;;;17.27;49.38
4981;BME280;2507;50.392;7.482;2023-11-19T10:20:17;100417.22;;;17.45;48.07
4981;BME280;2507;50.392;7.482;2023-11-19T10:22:42;100411.06;;;17.45;48.80
4981;BME280;2507;50.392;7.482;2023-11-19T10:25:22;100404.00;;;17.27;49.03
4981;BME280;2507;50.392;7.482;2023-11-19T10:27:48;100400.03;;;17.31;49.12
4981;BME280;2507;50.392;7.482;2023-11-19T10:30:20;100400.41;;;17.11;49.01
4981;BME280;2507;50.392;7.482;2023-11-19T10:33:02;100402.00;;;17.04;49.34
4981;BME280;2507;50.392;7.482;2023-11-19T10:35:27;100407.84;;;17.07;49.64
4981;BME280;2507;50.392;7.482;2023-11-19T10:37:53;100405.94;;;17.17;49.72
4981;BME280;2507;50.392;7.482;2023-11-19T10:40:18;100409.94;;;17.21;49.13
4981;BME280;2507;50.392;7.482;2023-11-19T10:42:43;100405.00;;;17.26;48.51
4981;BME280;2507;50.392;7.482;2023-11-19T10:45:24;100395.47;;;17.16;48.62
4981;BME280;2507;50.392;7.482;2023-11-19T10:47:51;100420.06;;;17.26;48.90
4981;BME280;2507;50.392;7.482;2023-11-19T10:50:17;100414.41;;;17.47;48.83
4981;BME280;2507;50.392;7.482;2023-11-19T10:52:43;100405.59;;;17.72;48.84
4981;BME280;2507;50.392;7.482;2023-11-19T10:55:11;100400.66;;;17.77;47.31
4981;BME280;2507;50.392;7.482;2023-11-19T10:57:36;100399.53;;;17.87;47.34
4981;BME280;2507;50.392;7.482;2023-11-19T11:00:05;100390.41;;;17.90;47.54
4981;BME280;2507;50.392;7.482;2023-11-19T11:02:40;100391.53;;;17.79;46.57
4981;BME280;2507;50.392;7.482;2023-11-19T11:05:07;100396.44;;;17.41;46.95
4981;BME280;2507;50.392;7.482;2023-11-19T11:07:33;100389.44;;;17.31;47.03
4981;BME280;2507;50.392;7.482;2023-11-19T11:10:00;100374.78;;;17.19;47.93
4981;BME280;2507;50.392;7.482;2023-11-19T11:12:26;100383.94;;;16.99;48.48
4981;BME280;2507;50.392;7.482;2023-11-19T11:14:53;100378.63;;;16.99;48.18
4981;BME280;2507;50.392;7.482;2023-11-19T11:17:20;100363.44;;;17.09;47.36
4981;BME280;2507;50.392;7.482;2023-11-19T11:19:49;100366.16;;;17.17;47.94
4981;BME280;2507;50.392;7.482;2023-11-19T11:22:16;100410.03;;;17.12;48.87
4981;BME280;2507;50.392;7.482;2023-11-19T11:24:56;100371.03;;;17.30;48.99
4981;BME280;2507;50.392;7.482;2023-11-19T11:27:46;100370.53;;;17.60;47.88
4981;BME280;2507;50.392;7.482;2023-11-19T11:30:43;100378.88;;;17.65;47.43
4981;BME280;2507;50.392;7.482;2023-11-19T11:33:40;100376.00;;;17.59;47.34
4981;BME280;2507;50.392;7.482;2023-11-19T11:36:22;100367.38;;;17.57;46.65
4981;BME280;2507;50.392;7.482;2023-11-19T11:38:49;100378.31;;;17.28;47.72
4981;BME280;2507;50.392;7.482;2023-11-19T11:41:19;100385.22;;;17.21;48.40
4981;BME280;2507;50.392;7.482;2023-11-19T11:43:52;100368.72;;;17.09;48.91
4981;BME280;2507;50.392;7.482;2023-11-19T11:49:06;100371.03;;;17.04;49.64
4981;BME280;2507;50.392;7.482;2023-11-19T11:54:30;100379.78;;;16.79;48.84
4981;BME280;2507;50.392;7.482;2023-11-19T11:57:10;100375.91;;;16.91;48.81
4981;BME280;2507;50.392;7.482;2023-11-19T12:02:28;100370.69;;;17.25;48.17
4981;BME280;2507;50.392;7.482;2023-11-19T12:04:54;100359.38;;;17.23;47.83
4981;BME280;2507;50.392;7.482;2023-11-19T12:07:24;100355.94;;;17.30;47.62
4981;BME280;2507;50.392;7.482;2023-11-19T12:10:05;100346.72;;;17.43;47.70
4981;BME280;2507;50.392;7.482;2023-11-19T12:12:32;100336.31;;;17.49;47.39
4981;BME280;2507;50.392;7.482;2023-11-19T12:19:59;100336.50;;;17.48;46.69
4981;BME280;2507;50.392;7.482;2023-11-19T12:22:25;100336.72;;;17.36;47.29
4981;BME280;2507;50.392;7.482;2023-11-19T12:24:54;100328.34;;;17.15;47.67
4981;BME280;2507;50.392;7.482;2023-11-19T12:27:20;100324.59;;;17.00;47.47
4981;BME280;2507;50.392;7.482;2023-11-19T12:29:48;100322.84;;;17.09;47.87
4981;BME280;2507;50.392;7.482;2023-11-19T12:32:13;100319.78;;;16.96;47.92
4981;BME280;2507;50.392;7.482;2023-11-19T12:34:38;100321.69;;;17.11;47.37
4981;BME280;2507;50.392;7.482;2023-11-19T12:37:04;100311.94;;;17.20;47.09
4981;BME280;2507;50.392;7.482;2023-11-19T12:39:30;100297.13;;;17.09;47.17
4981;BME280;2507;50.392;7.482;2023-11-19T12:41:55;100287.84;;;17.05;47.07
4981;BME280;2507;50.392;7.482;2023-11-19T12:44:24;100281.63;;;17.22;46.69
4981;BME280;2507;50.392;7.482;2023-11-19T12:49:28;100283.38;;;17.06;46.71
4981;BME280;2507;50.392;7.482;2023-11-19T12:51:53;100272.97;;;17.12;46.91
4981;BME280;2507;50.392;7.482;2023-11-19T12:54:19;100283.94;;;17.17;46.77
4981;BME280;2507;50.392;7.482;2023-11-19T12:56:53;100283.00;;;17.34;46.25
4981;BME280;2507;50.392;7.482;2023-11-19T12:59:19;100278.03;;;17.31;45.86
4981;BME280;2507;50.392;7.482;2023-11-19T13:02:05;100273.75;;;17.38;46.14
4981;BME280;2507;50.392;7.482;2023-11-19T13:04:31;100274.06;;;17.35;46.40
4981;BME280;2507;50.392;7.482;2023-11-19T13:07:00;100269.22;;;17.23;46.69
4981;BME280;2507;50.392;7.482;2023-11-19T13:09:27;100288.63;;;17.31;46.68
4981;BME280;2507;50.392;7.482;2023-11-19T13:11:55;100283.81;;;17.27;46.74
4981;BME280;2507;50.392;7.482;2023-11-19T13:14:21;100280.69;;;17.31;46.95
4981;BME280;2507;50.392;7.482;2023-11-19T13:16:47;100279.31;;;17.27;47.27
4981;BME280;2507;50.392;7.482;2023-11-19T13:19:13;100276.22;;;17.40;46.60
4981;BME280;2507;50.392;7.482;2023-11-19T13:21:38;100283.53;;;17.38;47.34
4981;BME280;2507;50.392;7.482;2023-11-19T13:24:05;100275.88;;;17.35;47.28